Hovedside
METAR-TAF:

METAR-TAF

Lufthavner :

Oslo lufthavn (Gardermoen)

Oslo, Norge

breddegrad: 60-12N, lengdegrad: 011-05E, høyde over havet: 208 m

Gjeldene værobservasjon

Denne rapporten ble laget for 14 minutter siden, klokken 15:50 UTC
Vind 6 kt fra Nord-nordøst
Temperatur 0°C
Luftfuktighet 93%
Trykk 1025 hPa
Sikt 10 km eller mer
Overskyet i en høyde av 500 ft

METAR: ENGM 201550Z 03006KT 9999 OVC005 M00/M01 Q1025 TEMPO BKN004

Tid: 17:04 (16:04 UTC)

Varsel

Varsel gyldig fra 20. klokken 12 UTC til 21. klokken 12 UTC
Vind 5 kt fra Nord
Sikt 10 km eller mer
Brutte skyer i en høyde av 800 ft
Midlertidig
fra 20. klokken 12 UTC til 20. klokken 14 UTC
Spredte skyer i en høyde av 800 ft
Brutte skyer i en høyde av 1600 ft
Midlertidig
fra 20. klokken 14 UTC til 21. klokken 12 UTC
Sikt: 2000 m
Overskyet i en høyde av 400 ft
duskregn, regn, dis

TAF: ENGM 2012/2112 36005KT 9999 BKN008 TEMPO 2012/2014 SCT008 BKN016 TEMPO 2014/2112 2000 DZRA BR OVC004

Værobservasjoner og værvarsel for over 4000 flyplasser (METAR- og TAF-rapporter).

Tilgjengelige stasjoner er representert av de røde og gule prikkene på kartet.

Hold musepekeren over prikken for å se navnet på stasjonen.

Klikk så for å se værobservasjoner og -varsler.

For å forandre kartet kan du klikke på den grønne knappen med svart kryss for å zoome inn, på den grønne knappen med strek for å zoome ut, eller på de grønne pilene for å se tilstøtende kart.


METAR-TAF: